sensor_id;sensor_type;location;lat;lon;timestamp;P1;durP1;ratioP1;P2;durP2;ratioP2
54307;SDS011;40208;39.778;2.710;2022-08-01T00:01:40;6.60;;;3.72;;
54307;SDS011;40208;39.778;2.710;2022-08-01T00:04:25;4.43;;;3.03;;
54307;SDS011;40208;39.778;2.710;2022-08-01T00:07:10;5.50;;;3.22;;
54307;SDS011;40208;39.778;2.710;2022-08-01T00:09:55;7.60;;;3.42;;
54307;SDS011;40208;39.778;2.710;2022-08-01T00:12:40;8.77;;;3.40;;
54307;SDS011;40208;39.778;2.710;2022-08-01T00:15:26;7.90;;;3.00;;
54307;SDS011;40208;39.778;2.710;2022-08-01T00:18:10;10.52;;;3.40;;
54307;SDS011;40208;39.778;2.710;2022-08-01T00:20:55;8.75;;;3.22;;
54307;SDS011;40208;39.778;2.710;2022-08-01T00:23:40;8.10;;;3.30;;
54307;SDS011;40208;39.778;2.710;2022-08-01T00:26:25;8.27;;;3.55;;
54307;SDS011;40208;39.778;2.710;2022-08-01T00:29:10;4.88;;;3.00;;
54307;SDS011;40208;39.778;2.710;2022-08-01T00:31:55;6.53;;;3.00;;
54307;SDS011;40208;39.778;2.710;2022-08-01T00:34:40;5.50;;;3.05;;
54307;SDS011;40208;39.778;2.710;2022-08-01T00:37:25;5.57;;;3.15;;
54307;SDS011;40208;39.778;2.710;2022-08-01T00:40:10;6.25;;;3.28;;
54307;SDS011;40208;39.778;2.710;2022-08-01T00:42:54;8.05;;;3.40;;
54307;SDS011;40208;39.778;2.710;2022-08-01T00:45:39;8.55;;;3.10;;
54307;SDS011;40208;39.778;2.710;2022-08-01T00:48:24;5.85;;;2.92;;
54307;SDS011;40208;39.778;2.710;2022-08-01T00:51:09;5.32;;;2.67;;
54307;SDS011;40208;39.778;2.710;2022-08-01T00:53:55;5.07;;;3.08;;
54307;SDS011;40208;39.778;2.710;2022-08-01T00:56:39;7.22;;;3.00;;
54307;SDS011;40208;39.778;2.710;2022-08-01T00:59:25;5.30;;;3.25;;
54307;SDS011;40208;39.778;2.710;2022-08-01T01:02:11;6.95;;;3.33;;
54307;SDS011;40208;39.778;2.710;2022-08-01T01:04:55;8.35;;;3.33;;
54307;SDS011;40208;39.778;2.710;2022-08-01T01:08:02;5.63;;;3.80;;
54307;SDS011;40208;39.778;2.710;2022-08-01T01:11:03;4.30;;;2.90;;
54307;SDS011;40208;39.778;2.710;2022-08-01T01:14:08;7.10;;;3.08;;
54307;SDS011;40208;39.778;2.710;2022-08-01T01:16:58;4.07;;;3.20;;
54307;SDS011;40208;39.778;2.710;2022-08-01T01:19:47;5.65;;;3.47;;
54307;SDS011;40208;39.778;2.710;2022-08-01T01:25:39;4.60;;;3.22;;
54307;SDS011;40208;39.778;2.710;2022-08-01T01:31:52;6.25;;;3.22;;
54307;SDS011;40208;39.778;2.710;2022-08-01T01:34:42;4.75;;;3.17;;
54307;SDS011;40208;39.778;2.710;2022-08-01T01:37:29;8.50;;;3.42;;
54307;SDS011;40208;39.778;2.710;2022-08-01T01:40:17;8.90;;;3.50;;
54307;SDS011;40208;39.778;2.710;2022-08-01T01:43:04;7.60;;;3.30;;
54307;SDS011;40208;39.778;2.710;2022-08-01T01:45:53;4.50;;;3.17;;
54307;SDS011;40208;39.778;2.710;2022-08-01T01:48:40;4.05;;;3.28;;
54307;SDS011;40208;39.778;2.710;2022-08-01T01:51:29;6.47;;;4.40;;
54307;SDS011;40208;39.778;2.710;2022-08-01T01:54:15;4.78;;;3.45;;
54307;SDS011;40208;39.778;2.710;2022-08-01T01:57:02;8.07;;;4.38;;
54307;SDS011;40208;39.778;2.710;2022-08-01T01:59:49;6.20;;;3.40;;
54307;SDS011;40208;39.778;2.710;2022-08-01T02:02:36;7.60;;;3.30;;
54307;SDS011;40208;39.778;2.710;2022-08-01T02:05:22;6.97;;;3.97;;
54307;SDS011;40208;39.778;2.710;2022-08-01T02:08:09;6.05;;;3.40;;
54307;SDS011;40208;39.778;2.710;2022-08-01T02:10:56;5.43;;;3.17;;
54307;SDS011;40208;39.778;2.710;2022-08-01T02:14:01;7.03;;;3.47;;
54307;SDS011;40208;39.778;2.710;2022-08-01T02:16:48;7.03;;;3.20;;
54307;SDS011;40208;39.778;2.710;2022-08-01T02:19:34;9.13;;;3.78;;
54307;SDS011;40208;39.778;2.710;2022-08-01T02:22:20;5.38;;;3.67;;
54307;SDS011;40208;39.778;2.710;2022-08-01T02:25:17;8.20;;;3.60;;
54307;SDS011;40208;39.778;2.710;2022-08-01T02:28:15;10.07;;;3.80;;
54307;SDS011;40208;39.778;2.710;2022-08-01T02:31:06;9.10;;;3.90;;
54307;SDS011;40208;39.778;2.710;2022-08-01T02:33:58;6.35;;;3.28;;
54307;SDS011;40208;39.778;2.710;2022-08-01T02:36:49;6.93;;;3.60;;
54307;SDS011;40208;39.778;2.710;2022-08-01T02:39:38;6.22;;;3.58;;
54307;SDS011;40208;39.778;2.710;2022-08-01T02:42:24;4.53;;;3.67;;
54307;SDS011;40208;39.778;2.710;2022-08-01T02:45:12;5.60;;;3.72;;
54307;SDS011;40208;39.778;2.710;2022-08-01T02:47:59;5.93;;;3.20;;
54307;SDS011;40208;39.778;2.710;2022-08-01T02:50:49;5.57;;;3.67;;
54307;SDS011;40208;39.778;2.710;2022-08-01T02:53:37;4.88;;;3.50;;
54307;SDS011;40208;39.778;2.710;2022-08-01T02:56:26;7.07;;;3.90;;
54307;SDS011;40208;39.778;2.710;2022-08-01T02:59:19;4.22;;;3.53;;
54307;SDS011;40208;39.778;2.710;2022-08-01T03:02:10;7.57;;;3.92;;
54307;SDS011;40208;39.778;2.710;2022-08-01T03:04:56;5.55;;;3.97;;
54307;SDS011;40208;39.778;2.710;2022-08-01T03:07:42;9.13;;;3.85;;
54307;SDS011;40208;39.778;2.710;2022-08-01T03:10:28;8.20;;;3.90;;
54307;SDS011;40208;39.778;2.710;2022-08-01T03:13:15;7.35;;;3.30;;
54307;SDS011;40208;39.778;2.710;2022-08-01T03:16:01;5.70;;;3.35;;
54307;SDS011;40208;39.778;2.710;2022-08-01T03:18:49;4.28;;;3.25;;
54307;SDS011;40208;39.778;2.710;2022-08-01T03:21:37;7.82;;;3.50;;
54307;SDS011;40208;39.778;2.710;2022-08-01T03:24:25;7.85;;;3.42;;
54307;SDS011;40208;39.778;2.710;2022-08-01T03:27:11;7.18;;;3.38;;
54307;SDS011;40208;39.778;2.710;2022-08-01T03:29:58;5.28;;;3.45;;
54307;SDS011;40208;39.778;2.710;2022-08-01T03:32:47;4.95;;;3.58;;
54307;SDS011;40208;39.778;2.710;2022-08-01T03:35:39;6.60;;;3.50;;
54307;SDS011;40208;39.778;2.710;2022-08-01T03:38:30;7.07;;;3.42;;
54307;SDS011;40208;39.778;2.710;2022-08-01T03:41:18;4.78;;;3.53;;
54307;SDS011;40208;39.778;2.710;2022-08-01T03:44:07;5.18;;;3.47;;
54307;SDS011;40208;39.778;2.710;2022-08-01T03:47:02;8.70;;;3.60;;
54307;SDS011;40208;39.778;2.710;2022-08-01T03:49:49;4.95;;;3.10;;
54307;SDS011;40208;39.778;2.710;2022-08-01T03:52:37;5.18;;;3.80;;
54307;SDS011;40208;39.778;2.710;2022-08-01T03:55:23;7.03;;;3.60;;
54307;SDS011;40208;39.778;2.710;2022-08-01T03:58:09;5.50;;;3.53;;
54307;SDS011;40208;39.778;2.710;2022-08-01T04:00:56;5.10;;;3.10;;
54307;SDS011;40208;39.778;2.710;2022-08-01T04:03:42;5.90;;;3.35;;
54307;SDS011;40208;39.778;2.710;2022-08-01T04:06:28;4.85;;;3.67;;
54307;SDS011;40208;39.778;2.710;2022-08-01T04:09:14;9.00;;;4.55;;
54307;SDS011;40208;39.778;2.710;2022-08-01T04:11:59;6.00;;;4.05;;
54307;SDS011;40208;39.778;2.710;2022-08-01T04:14:44;9.10;;;3.80;;
54307;SDS011;40208;39.778;2.710;2022-08-01T04:17:29;7.00;;;4.00;;
54307;SDS011;40208;39.778;2.710;2022-08-01T04:20:14;6.50;;;4.38;;
54307;SDS011;40208;39.778;2.710;2022-08-01T04:23:00;12.90;;;5.15;;
54307;SDS011;40208;39.778;2.710;2022-08-01T04:25:44;13.45;;;4.63;;
54307;SDS011;40208;39.778;2.710;2022-08-01T04:28:32;8.35;;;3.65;;
54307;SDS011;40208;39.778;2.710;2022-08-01T04:31:19;5.72;;;3.85;;
54307;SDS011;40208;39.778;2.710;2022-08-01T04:34:05;11.38;;;4.00;;
54307;SDS011;40208;39.778;2.710;2022-08-01T04:36:51;6.18;;;3.60;;
54307;SDS011;40208;39.778;2.710;2022-08-01T04:39:39;8.15;;;4.30;;
54307;SDS011;40208;39.778;2.710;2022-08-01T04:42:26;11.00;;;3.78;;
54307;SDS011;40208;39.778;2.710;2022-08-01T04:45:12;8.63;;;4.43;;
54307;SDS011;40208;39.778;2.710;2022-08-01T04:47:56;4.68;;;4.00;;
54307;SDS011;40208;39.778;2.710;2022-08-01T04:50:42;9.38;;;4.38;;
54307;SDS011;40208;39.778;2.710;2022-08-01T04:53:26;7.75;;;4.20;;
54307;SDS011;40208;39.778;2.710;2022-08-01T04:56:12;10.52;;;4.28;;
54307;SDS011;40208;39.778;2.710;2022-08-01T04:58:57;10.45;;;4.22;;
54307;SDS011;40208;39.778;2.710;2022-08-01T05:02:00;6.47;;;3.78;;
54307;SDS011;40208;39.778;2.710;2022-08-01T05:04:45;6.75;;;4.10;;
54307;SDS011;40208;39.778;2.710;2022-08-01T05:07:30;12.00;;;3.92;;
54307;SDS011;40208;39.778;2.710;2022-08-01T05:10:15;10.30;;;4.15;;
54307;SDS011;40208;39.778;2.710;2022-08-01T05:13:00;11.32;;;3.83;;
54307;SDS011;40208;39.778;2.710;2022-08-01T05:15:45;13.27;;;4.35;;
54307;SDS011;40208;39.778;2.710;2022-08-01T05:18:30;13.27;;;3.97;;
54307;SDS011;40208;39.778;2.710;2022-08-01T05:21:15;7.32;;;4.38;;
54307;SDS011;40208;39.778;2.710;2022-08-01T05:23:59;8.07;;;4.25;;
54307;SDS011;40208;39.778;2.710;2022-08-01T05:26:44;13.85;;;4.28;;
54307;SDS011;40208;39.778;2.710;2022-08-01T05:29:29;13.98;;;5.05;;
54307;SDS011;40208;39.778;2.710;2022-08-01T05:32:14;10.02;;;4.50;;
54307;SDS011;40208;39.778;2.710;2022-08-01T05:34:59;11.55;;;3.72;;
54307;SDS011;40208;39.778;2.710;2022-08-01T05:37:44;18.70;;;4.00;;
54307;SDS011;40208;39.778;2.710;2022-08-01T05:40:29;17.67;;;5.18;;
54307;SDS011;40208;39.778;2.710;2022-08-01T05:43:14;10.07;;;4.07;;
54307;SDS011;40208;39.778;2.710;2022-08-01T05:45:59;10.18;;;4.63;;
54307;SDS011;40208;39.778;2.710;2022-08-01T05:48:45;11.13;;;4.30;;
54307;SDS011;40208;39.778;2.710;2022-08-01T05:51:30;13.63;;;5.38;;
54307;SDS011;40208;39.778;2.710;2022-08-01T05:54:15;13.05;;;4.50;;
54307;SDS011;40208;39.778;2.710;2022-08-01T05:57:00;13.23;;;4.80;;
54307;SDS011;40208;39.778;2.710;2022-08-01T05:59:46;10.02;;;5.38;;
54307;SDS011;40208;39.778;2.710;2022-08-01T06:02:30;12.18;;;5.10;;
54307;SDS011;40208;39.778;2.710;2022-08-01T06:05:15;14.88;;;5.57;;
54307;SDS011;40208;39.778;2.710;2022-08-01T06:08:00;10.95;;;4.95;;
54307;SDS011;40208;39.778;2.710;2022-08-01T06:10:45;13.27;;;5.95;;
54307;SDS011;40208;39.778;2.710;2022-08-01T06:13:29;21.27;;;5.28;;
54307;SDS011;40208;39.778;2.710;2022-08-01T06:16:14;16.20;;;5.40;;
54307;SDS011;40208;39.778;2.710;2022-08-01T06:19:00;16.30;;;5.30;;
54307;SDS011;40208;39.778;2.710;2022-08-01T06:21:45;11.05;;;5.70;;
54307;SDS011;40208;39.778;2.710;2022-08-01T06:24:30;9.88;;;5.55;;
54307;SDS011;40208;39.778;2.710;2022-08-01T06:27:15;7.65;;;4.43;;
54307;SDS011;40208;39.778;2.710;2022-08-01T06:30:00;19.75;;;5.13;;
54307;SDS011;40208;39.778;2.710;2022-08-01T06:32:45;9.13;;;5.30;;
54307;SDS011;40208;39.778;2.710;2022-08-01T06:35:31;12.65;;;5.20;;
54307;SDS011;40208;39.778;2.710;2022-08-01T06:38:16;11.38;;;4.90;;
54307;SDS011;40208;39.778;2.710;2022-08-01T06:41:01;8.70;;;4.40;;
54307;SDS011;40208;39.778;2.710;2022-08-01T06:43:46;8.82;;;5.20;;
54307;SDS011;40208;39.778;2.710;2022-08-01T06:46:31;6.10;;;3.92;;
54307;SDS011;40208;39.778;2.710;2022-08-01T06:49:16;7.57;;;4.35;;
54307;SDS011;40208;39.778;2.710;2022-08-01T06:52:01;8.82;;;3.97;;
54307;SDS011;40208;39.778;2.710;2022-08-01T06:54:47;20.05;;;4.88;;
54307;SDS011;40208;39.778;2.710;2022-08-01T06:57:31;5.47;;;4.13;;
54307;SDS011;40208;39.778;2.710;2022-08-01T07:00:17;8.00;;;4.13;;
54307;SDS011;40208;39.778;2.710;2022-08-01T07:03:06;7.68;;;4.50;;
54307;SDS011;40208;39.778;2.710;2022-08-01T07:05:51;8.00;;;3.83;;
54307;SDS011;40208;39.778;2.710;2022-08-01T07:08:35;7.30;;;3.75;;
54307;SDS011;40208;39.778;2.710;2022-08-01T07:11:21;13.27;;;4.10;;
54307;SDS011;40208;39.778;2.710;2022-08-01T07:14:07;14.02;;;4.30;;
54307;SDS011;40208;39.778;2.710;2022-08-01T07:16:52;10.40;;;5.20;;
54307;SDS011;40208;39.778;2.710;2022-08-01T07:19:37;7.35;;;3.65;;
54307;SDS011;40208;39.778;2.710;2022-08-01T07:22:22;8.38;;;3.50;;
54307;SDS011;40208;39.778;2.710;2022-08-01T07:25:07;5.43;;;3.30;;
54307;SDS011;40208;39.778;2.710;2022-08-01T07:27:52;6.45;;;3.20;;
54307;SDS011;40208;39.778;2.710;2022-08-01T07:30:37;10.60;;;3.67;;
54307;SDS011;40208;39.778;2.710;2022-08-01T07:33:22;5.22;;;3.40;;
54307;SDS011;40208;39.778;2.710;2022-08-01T07:36:07;5.53;;;2.97;;
54307;SDS011;40208;39.778;2.710;2022-08-01T07:38:52;3.33;;;2.75;;
54307;SDS011;40208;39.778;2.710;2022-08-01T07:41:36;12.88;;;3.08;;
54307;SDS011;40208;39.778;2.710;2022-08-01T07:44:21;4.50;;;2.63;;
54307;SDS011;40208;39.778;2.710;2022-08-01T07:47:06;6.25;;;2.40;;
54307;SDS011;40208;39.778;2.710;2022-08-01T07:49:51;5.72;;;2.83;;
54307;SDS011;40208;39.778;2.710;2022-08-01T07:52:42;7.05;;;2.58;;
54307;SDS011;40208;39.778;2.710;2022-08-01T07:55:27;3.00;;;1.98;;
54307;SDS011;40208;39.778;2.710;2022-08-01T07:58:12;2.35;;;1.88;;
54307;SDS011;40208;39.778;2.710;2022-08-01T08:00:57;4.50;;;1.95;;
54307;SDS011;40208;39.778;2.710;2022-08-01T08:03:42;3.47;;;2.15;;
54307;SDS011;40208;39.778;2.710;2022-08-01T08:06:27;4.85;;;2.20;;
54307;SDS011;40208;39.778;2.710;2022-08-01T08:09:12;3.63;;;2.30;;
54307;SDS011;40208;39.778;2.710;2022-08-01T08:11:56;4.05;;;2.17;;
54307;SDS011;40208;39.778;2.710;2022-08-01T08:14:41;4.93;;;2.00;;
54307;SDS011;40208;39.778;2.710;2022-08-01T08:17:26;6.15;;;2.10;;
54307;SDS011;40208;39.778;2.710;2022-08-01T08:20:11;4.95;;;2.75;;
54307;SDS011;40208;39.778;2.710;2022-08-01T08:22:57;6.00;;;2.25;;
54307;SDS011;40208;39.778;2.710;2022-08-01T08:25:42;3.75;;;2.20;;
54307;SDS011;40208;39.778;2.710;2022-08-01T08:28:27;4.00;;;2.45;;
54307;SDS011;40208;39.778;2.710;2022-08-01T08:31:12;5.15;;;2.33;;
54307;SDS011;40208;39.778;2.710;2022-08-01T08:33:57;2.80;;;1.80;;
54307;SDS011;40208;39.778;2.710;2022-08-01T08:36:42;3.50;;;2.17;;
54307;SDS011;40208;39.778;2.710;2022-08-01T08:39:27;3.45;;;2.10;;
54307;SDS011;40208;39.778;2.710;2022-08-01T08:42:13;5.00;;;2.58;;
54307;SDS011;40208;39.778;2.710;2022-08-01T08:44:58;10.57;;;2.42;;
54307;SDS011;40208;39.778;2.710;2022-08-01T08:47:43;7.78;;;2.75;;
54307;SDS011;40208;39.778;2.710;2022-08-01T08:50:30;4.28;;;2.17;;
54307;SDS011;40208;39.778;2.710;2022-08-01T08:53:16;2.55;;;2.05;;
54307;SDS011;40208;39.778;2.710;2022-08-01T08:56:03;5.90;;;1.95;;
54307;SDS011;40208;39.778;2.710;2022-08-01T08:58:51;6.15;;;2.10;;
54307;SDS011;40208;39.778;2.710;2022-08-01T09:01:36;3.65;;;2.20;;
54307;SDS011;40208;39.778;2.710;2022-08-01T09:04:21;4.80;;;2.22;;
54307;SDS011;40208;39.778;2.710;2022-08-01T09:07:09;4.70;;;2.22;;
54307;SDS011;40208;39.778;2.710;2022-08-01T09:09:56;5.05;;;2.20;;
54307;SDS011;40208;39.778;2.710;2022-08-01T09:12:54;4.38;;;2.22;;
54307;SDS011;40208;39.778;2.710;2022-08-01T09:15:50;5.63;;;1.85;;
54307;SDS011;40208;39.778;2.710;2022-08-01T09:18:40;5.05;;;2.10;;
54307;SDS011;40208;39.778;2.710;2022-08-01T09:21:27;5.68;;;2.25;;
54307;SDS011;40208;39.778;2.710;2022-08-01T09:24:13;3.60;;;2.40;;
54307;SDS011;40208;39.778;2.710;2022-08-01T09:26:59;4.55;;;2.38;;
54307;SDS011;40208;39.778;2.710;2022-08-01T09:29:45;8.82;;;3.28;;
54307;SDS011;40208;39.778;2.710;2022-08-01T09:32:29;7.35;;;3.03;;
54307;SDS011;40208;39.778;2.710;2022-08-01T09:35:25;10.45;;;3.30;;
54307;SDS011;40208;39.778;2.710;2022-08-01T09:38:19;6.57;;;3.20;;
54307;SDS011;40208;39.778;2.710;2022-08-01T09:41:06;6.88;;;3.25;;
54307;SDS011;40208;39.778;2.710;2022-08-01T09:43:51;5.15;;;2.35;;
54307;SDS011;40208;39.778;2.710;2022-08-01T09:46:36;4.75;;;2.60;;
54307;SDS011;40208;39.778;2.710;2022-08-01T09:49:34;4.03;;;2.20;;
54307;SDS011;40208;39.778;2.710;2022-08-01T09:52:21;4.57;;;2.25;;
54307;SDS011;40208;39.778;2.710;2022-08-01T09:55:08;6.38;;;2.35;;
54307;SDS011;40208;39.778;2.710;2022-08-01T09:57:56;3.08;;;2.28;;
54307;SDS011;40208;39.778;2.710;2022-08-01T10:00:45;8.40;;;3.22;;
54307;SDS011;40208;39.778;2.710;2022-08-01T10:06:29;10.65;;;3.13;;
54307;SDS011;40208;39.778;2.710;2022-08-01T10:09:14;4.18;;;2.70;;
54307;SDS011;40208;39.778;2.710;2022-08-01T10:12:11;7.75;;;2.58;;
54307;SDS011;40208;39.778;2.710;2022-08-01T10:14:57;4.18;;;1.75;;
54307;SDS011;40208;39.778;2.710;2022-08-01T10:17:56;4.53;;;1.95;;
54307;SDS011;40208;39.778;2.710;2022-08-01T10:20:43;4.53;;;1.73;;
54307;SDS011;40208;39.778;2.710;2022-08-01T10:23:38;3.67;;;2.00;;
54307;SDS011;40208;39.778;2.710;2022-08-01T10:26:24;6.60;;;2.60;;
54307;SDS011;40208;39.778;2.710;2022-08-01T10:29:10;7.75;;;2.95;;
54307;SDS011;40208;39.778;2.710;2022-08-01T10:31:55;4.63;;;2.17;;
54307;SDS011;40208;39.778;2.710;2022-08-01T10:34:40;4.63;;;2.42;;
54307;SDS011;40208;39.778;2.710;2022-08-01T10:37:25;7.57;;;2.85;;
54307;SDS011;40208;39.778;2.710;2022-08-01T10:40:14;3.80;;;1.50;;
54307;SDS011;40208;39.778;2.710;2022-08-01T10:43:00;2.65;;;1.65;;
54307;SDS011;40208;39.778;2.710;2022-08-01T10:45:46;4.70;;;2.08;;
54307;SDS011;40208;39.778;2.710;2022-08-01T10:48:35;3.42;;;1.60;;
54307;SDS011;40208;39.778;2.710;2022-08-01T10:51:29;2.30;;;1.60;;
54307;SDS011;40208;39.778;2.710;2022-08-01T10:54:14;4.47;;;1.70;;
54307;SDS011;40208;39.778;2.710;2022-08-01T10:56:59;2.67;;;1.60;;
54307;SDS011;40208;39.778;2.710;2022-08-01T10:59:48;2.33;;;1.50;;
54307;SDS011;40208;39.778;2.710;2022-08-01T11:02:35;3.47;;;1.65;;
54307;SDS011;40208;39.778;2.710;2022-08-01T11:05:24;3.60;;;1.85;;
54307;SDS011;40208;39.778;2.710;2022-08-01T11:08:10;2.63;;;1.55;;
54307;SDS011;40208;39.778;2.710;2022-08-01T11:11:05;5.55;;;1.85;;
54307;SDS011;40208;39.778;2.710;2022-08-01T11:16:55;2.58;;;1.60;;
54307;SDS011;40208;39.778;2.710;2022-08-01T11:28:30;1.92;;;1.27;;
54307;SDS011;40208;39.778;2.710;2022-08-01T11:34:00;4.82;;;1.85;;
54307;SDS011;40208;39.778;2.710;2022-08-01T11:36:46;8.15;;;1.70;;
54307;SDS011;40208;39.778;2.710;2022-08-01T11:39:31;2.83;;;1.50;;
54307;SDS011;40208;39.778;2.710;2022-08-01T11:42:19;4.85;;;1.52;;
54307;SDS011;40208;39.778;2.710;2022-08-01T11:45:04;4.35;;;1.52;;
54307;SDS011;40208;39.778;2.710;2022-08-01T11:47:50;3.78;;;1.50;;
54307;SDS011;40208;39.778;2.710;2022-08-01T11:50:35;1.48;;;1.30;;
54307;SDS011;40208;39.778;2.710;2022-08-01T11:53:21;6.35;;;1.67;;
54307;SDS011;40208;39.778;2.710;2022-08-01T11:56:06;1.80;;;1.33;;
54307;SDS011;40208;39.778;2.710;2022-08-01T11:58:58;5.05;;;1.75;;
54307;SDS011;40208;39.778;2.710;2022-08-01T12:01:44;1.90;;;1.35;;
54307;SDS011;40208;39.778;2.710;2022-08-01T12:07:38;4.00;;;1.50;;
54307;SDS011;40208;39.778;2.710;2022-08-01T12:10:27;2.80;;;1.50;;
54307;SDS011;40208;39.778;2.710;2022-08-01T12:13:16;4.07;;;1.58;;
54307;SDS011;40208;39.778;2.710;2022-08-01T12:16:06;8.02;;;1.35;;
54307;SDS011;40208;39.778;2.710;2022-08-01T12:18:52;7.20;;;1.40;;
54307;SDS011;40208;39.778;2.710;2022-08-01T12:21:36;8.85;;;1.90;;
54307;SDS011;40208;39.778;2.710;2022-08-01T12:24:22;1.90;;;1.50;;
54307;SDS011;40208;39.778;2.710;2022-08-01T12:27:08;4.95;;;1.40;;
54307;SDS011;40208;39.778;2.710;2022-08-01T12:29:55;4.57;;;1.73;;
54307;SDS011;40208;39.778;2.710;2022-08-01T12:32:42;2.70;;;1.83;;
54307;SDS011;40208;39.778;2.710;2022-08-01T12:35:28;3.88;;;1.50;;
54307;SDS011;40208;39.778;2.710;2022-08-01T12:38:15;4.68;;;1.70;;
54307;SDS011;40208;39.778;2.710;2022-08-01T12:41:01;4.60;;;1.90;;
54307;SDS011;40208;39.778;2.710;2022-08-01T12:43:48;4.53;;;2.28;;
54307;SDS011;40208;39.778;2.710;2022-08-01T12:46:33;6.22;;;1.88;;
54307;SDS011;40208;39.778;2.710;2022-08-01T12:49:18;2.88;;;1.73;;
54307;SDS011;40208;39.778;2.710;2022-08-01T12:52:03;4.40;;;1.55;;
54307;SDS011;40208;39.778;2.710;2022-08-01T12:54:59;2.65;;;1.50;;
54307;SDS011;40208;39.778;2.710;2022-08-01T12:57:45;2.90;;;1.67;;
54307;SDS011;40208;39.778;2.710;2022-08-01T13:00:36;2.92;;;1.75;;
54307;SDS011;40208;39.778;2.710;2022-08-01T13:03:28;4.05;;;1.80;;
54307;SDS011;40208;39.778;2.710;2022-08-01T13:06:13;2.90;;;1.52;;
54307;SDS011;40208;39.778;2.710;2022-08-01T13:09:06;8.75;;;1.73;;
54307;SDS011;40208;39.778;2.710;2022-08-01T13:11:53;2.85;;;1.52;;
54307;SDS011;40208;39.778;2.710;2022-08-01T13:14:40;4.63;;;1.85;;
54307;SDS011;40208;39.778;2.710;2022-08-01T13:17:34;4.05;;;1.67;;
54307;SDS011;40208;39.778;2.710;2022-08-01T13:20:32;3.65;;;1.80;;
54307;SDS011;40208;39.778;2.710;2022-08-01T13:23:18;3.90;;;1.42;;
54307;SDS011;40208;39.778;2.710;2022-08-01T13:26:04;4.47;;;1.95;;
54307;SDS011;40208;39.778;2.710;2022-08-01T13:29:03;3.47;;;1.58;;
54307;SDS011;40208;39.778;2.710;2022-08-01T13:31:49;7.03;;;1.80;;
54307;SDS011;40208;39.778;2.710;2022-08-01T13:34:34;2.90;;;1.60;;
54307;SDS011;40208;39.778;2.710;2022-08-01T13:37:19;6.53;;;1.95;;
54307;SDS011;40208;39.778;2.710;2022-08-01T13:40:05;6.22;;;1.75;;
54307;SDS011;40208;39.778;2.710;2022-08-01T13:42:50;3.75;;;1.92;;
54307;SDS011;40208;39.778;2.710;2022-08-01T13:45:35;3.17;;;1.77;;
54307;SDS011;40208;39.778;2.710;2022-08-01T13:48:19;5.40;;;2.03;;
54307;SDS011;40208;39.778;2.710;2022-08-01T13:51:04;2.03;;;1.65;;
54307;SDS011;40208;39.778;2.710;2022-08-01T13:53:49;3.67;;;1.83;;
54307;SDS011;40208;39.778;2.710;2022-08-01T13:56:34;2.72;;;1.60;;
54307;SDS011;40208;39.778;2.710;2022-08-01T13:59:19;4.68;;;1.92;;
54307;SDS011;40208;39.778;2.710;2022-08-01T14:02:04;4.53;;;2.17;;
54307;SDS011;40208;39.778;2.710;2022-08-01T14:04:49;7.32;;;2.13;;
54307;SDS011;40208;39.778;2.710;2022-08-01T14:07:34;3.75;;;1.60;;
54307;SDS011;40208;39.778;2.710;2022-08-01T14:10:19;3.97;;;2.10;;
54307;SDS011;40208;39.778;2.710;2022-08-01T14:13:04;4.35;;;1.88;;
54307;SDS011;40208;39.778;2.710;2022-08-01T14:15:49;4.15;;;2.25;;
54307;SDS011;40208;39.778;2.710;2022-08-01T14:18:34;3.85;;;1.58;;
54307;SDS011;40208;39.778;2.710;2022-08-01T14:21:18;3.08;;;2.00;;
54307;SDS011;40208;39.778;2.710;2022-08-01T14:24:03;5.50;;;1.75;;
54307;SDS011;40208;39.778;2.710;2022-08-01T14:26:48;3.75;;;2.03;;
54307;SDS011;40208;39.778;2.710;2022-08-01T14:29:33;3.92;;;1.90;;
54307;SDS011;40208;39.778;2.710;2022-08-01T14:32:18;3.20;;;1.85;;
54307;SDS011;40208;39.778;2.710;2022-08-01T14:35:04;3.65;;;1.95;;
54307;SDS011;40208;39.778;2.710;2022-08-01T14:37:50;4.28;;;1.92;;
54307;SDS011;40208;39.778;2.710;2022-08-01T14:40:35;4.07;;;1.52;;
54307;SDS011;40208;39.778;2.710;2022-08-01T14:43:20;4.05;;;1.80;;
54307;SDS011;40208;39.778;2.710;2022-08-01T14:46:05;2.50;;;1.88;;
54307;SDS011;40208;39.778;2.710;2022-08-01T14:48:52;4.88;;;2.15;;
54307;SDS011;40208;39.778;2.710;2022-08-01T14:51:37;3.85;;;1.77;;
54307;SDS011;40208;39.778;2.710;2022-08-01T14:54:22;3.47;;;2.03;;
54307;SDS011;40208;39.778;2.710;2022-08-01T14:57:07;4.90;;;1.83;;
54307;SDS011;40208;39.778;2.710;2022-08-01T14:59:52;2.83;;;1.65;;
54307;SDS011;40208;39.778;2.710;2022-08-01T15:02:37;3.63;;;2.13;;
54307;SDS011;40208;39.778;2.710;2022-08-01T15:05:22;5.40;;;1.90;;
54307;SDS011;40208;39.778;2.710;2022-08-01T15:08:07;4.22;;;2.00;;
54307;SDS011;40208;39.778;2.710;2022-08-01T15:10:52;3.10;;;2.03;;
54307;SDS011;40208;39.778;2.710;2022-08-01T15:13:36;3.83;;;2.08;;
54307;SDS011;40208;39.778;2.710;2022-08-01T15:16:21;3.08;;;1.92;;
54307;SDS011;40208;39.778;2.710;2022-08-01T15:19:07;5.43;;;2.08;;
54307;SDS011;40208;39.778;2.710;2022-08-01T15:21:52;5.80;;;2.20;;
54307;SDS011;40208;39.778;2.710;2022-08-01T15:24:37;3.92;;;2.25;;
54307;SDS011;40208;39.778;2.710;2022-08-01T15:27:22;6.10;;;2.40;;
54307;SDS011;40208;39.778;2.710;2022-08-01T15:30:07;7.65;;;2.97;;
54307;SDS011;40208;39.778;2.710;2022-08-01T15:32:52;7.55;;;2.40;;
54307;SDS011;40208;39.778;2.710;2022-08-01T15:35:37;5.60;;;2.45;;
54307;SDS011;40208;39.778;2.710;2022-08-01T15:38:22;5.60;;;2.60;;
54307;SDS011;40208;39.778;2.710;2022-08-01T15:41:06;5.28;;;2.88;;
54307;SDS011;40208;39.778;2.710;2022-08-01T15:43:51;7.85;;;3.50;;
54307;SDS011;40208;39.778;2.710;2022-08-01T15:46:36;10.73;;;3.20;;
54307;SDS011;40208;39.778;2.710;2022-08-01T15:49:21;5.35;;;2.50;;
54307;SDS011;40208;39.778;2.710;2022-08-01T15:52:06;5.53;;;2.58;;
54307;SDS011;40208;39.778;2.710;2022-08-01T15:54:52;6.28;;;2.53;;
54307;SDS011;40208;39.778;2.710;2022-08-01T15:57:37;4.43;;;2.25;;
54307;SDS011;40208;39.778;2.710;2022-08-01T16:00:21;8.73;;;2.53;;
54307;SDS011;40208;39.778;2.710;2022-08-01T16:03:06;7.00;;;2.10;;
54307;SDS011;40208;39.778;2.710;2022-08-01T16:05:53;5.55;;;2.30;;
54307;SDS011;40208;39.778;2.710;2022-08-01T16:08:39;5.60;;;2.05;;
54307;SDS011;40208;39.778;2.710;2022-08-01T16:11:23;3.63;;;2.28;;
54307;SDS011;40208;39.778;2.710;2022-08-01T16:14:11;3.40;;;2.22;;
54307;SDS011;40208;39.778;2.710;2022-08-01T16:16:55;4.43;;;2.25;;
54307;SDS011;40208;39.778;2.710;2022-08-01T16:19:40;3.88;;;2.40;;
54307;SDS011;40208;39.778;2.710;2022-08-01T16:22:25;4.75;;;2.05;;
54307;SDS011;40208;39.778;2.710;2022-08-01T16:25:10;5.68;;;2.33;;
54307;SDS011;40208;39.778;2.710;2022-08-01T16:27:56;5.78;;;2.17;;
54307;SDS011;40208;39.778;2.710;2022-08-01T16:30:41;5.50;;;1.85;;
54307;SDS011;40208;39.778;2.710;2022-08-01T16:33:26;2.50;;;1.83;;
54307;SDS011;40208;39.778;2.710;2022-08-01T16:36:11;5.47;;;1.88;;
54307;SDS011;40208;39.778;2.710;2022-08-01T16:38:56;4.57;;;1.50;;
54307;SDS011;40208;39.778;2.710;2022-08-01T16:41:41;4.07;;;1.88;;
54307;SDS011;40208;39.778;2.710;2022-08-01T16:44:26;6.25;;;2.20;;
54307;SDS011;40208;39.778;2.710;2022-08-01T16:47:11;4.28;;;2.15;;
54307;SDS011;40208;39.778;2.710;2022-08-01T16:49:56;3.85;;;2.15;;
54307;SDS011;40208;39.778;2.710;2022-08-01T16:52:41;4.85;;;2.00;;
54307;SDS011;40208;39.778;2.710;2022-08-01T16:55:26;4.40;;;1.83;;
54307;SDS011;40208;39.778;2.710;2022-08-01T16:58:11;4.38;;;2.20;;
54307;SDS011;40208;39.778;2.710;2022-08-01T17:00:57;5.70;;;2.42;;
54307;SDS011;40208;39.778;2.710;2022-08-01T17:03:42;6.43;;;2.30;;
54307;SDS011;40208;39.778;2.710;2022-08-01T17:06:28;5.78;;;2.35;;
54307;SDS011;40208;39.778;2.710;2022-08-01T17:09:13;4.55;;;2.10;;